createdAt,value
2024-04-14T00:00:43.100Z,3.63
2024-04-14T00:03:09.898Z,3.29
2024-04-14T00:05:36.775Z,3.44
2024-04-14T00:08:03.944Z,3.68
2024-04-14T00:10:30.686Z,3.77
2024-04-14T00:13:00.031Z,3.59
2024-04-14T00:15:26.795Z,3.61
2024-04-14T00:17:53.676Z,3.48
2024-04-14T00:20:20.854Z,3.27
2024-04-14T00:22:48.368Z,3.22
2024-04-14T00:25:15.606Z,3.26
2024-04-14T00:27:42.821Z,3.33
2024-04-14T00:30:12.801Z,3.69
2024-04-14T00:32:39.933Z,3.41
2024-04-14T00:35:07.046Z,3.47
2024-04-14T00:37:33.848Z,3.42
2024-04-14T00:40:00.661Z,3.80
2024-04-14T00:42:27.490Z,3.63
2024-04-14T00:44:54.264Z,3.80
2024-04-14T00:47:23.800Z,3.51
2024-04-14T00:49:50.898Z,3.54
2024-04-14T00:52:17.831Z,3.53
2024-04-14T00:54:45.803Z,3.55
2024-04-14T00:57:13.209Z,3.40
2024-04-14T00:59:40.321Z,3.50
2024-04-14T01:02:07.688Z,3.43
2024-04-14T01:04:37.372Z,3.62
2024-04-14T01:07:04.617Z,3.65
2024-04-14T01:09:31.490Z,3.40
2024-04-14T01:11:58.246Z,3.36
2024-04-14T01:14:24.968Z,3.30
2024-04-14T01:16:51.778Z,3.36
2024-04-14T01:19:18.539Z,3.36
2024-04-14T01:21:47.899Z,3.36
2024-04-14T01:24:14.594Z,3.59
2024-04-14T01:26:43.955Z,3.42
2024-04-14T01:29:10.918Z,3.57
2024-04-14T01:31:38.117Z,3.37
2024-04-14T01:34:05.302Z,3.12
2024-04-14T01:36:32.525Z,3.21
2024-04-14T01:39:01.304Z,3.42
2024-04-14T01:41:28.485Z,3.20
2024-04-14T01:43:58.457Z,3.15
2024-04-14T01:46:25.569Z,3.11
2024-04-14T01:48:52.748Z,3.30
2024-04-14T01:51:20.045Z,3.30
2024-04-14T01:53:47.098Z,3.10
2024-04-14T01:56:14.256Z,3.31
2024-04-14T01:58:41.544Z,3.20
2024-04-14T02:01:11.909Z,3.34
2024-04-14T02:03:39.103Z,3.69
2024-04-14T02:06:06.857Z,3.74
2024-04-14T02:08:33.562Z,3.39
2024-04-14T02:11:01.453Z,3.45
2024-04-14T02:13:28.827Z,3.18
2024-04-14T02:15:55.540Z,3.46
2024-04-14T02:18:25.190Z,3.30
2024-04-14T02:20:51.927Z,3.39
2024-04-14T02:23:18.631Z,3.40
2024-04-14T02:25:54.400Z,3.32
2024-04-14T02:28:21.167Z,3.15
2024-04-14T02:30:47.989Z,3.21
2024-04-14T02:33:14.810Z,3.27
2024-04-14T02:35:53.170Z,3.28
2024-04-14T02:38:19.990Z,3.36
2024-04-14T02:40:55.628Z,3.27
2024-04-14T02:43:22.333Z,3.14
2024-04-14T02:45:49.156Z,3.08
2024-04-14T02:48:15.971Z,3.17
2024-04-14T02:50:45.614Z,2.90
2024-04-14T02:53:12.590Z,3.19
2024-04-14T02:55:39.955Z,3.03
2024-04-14T02:58:08.607Z,2.97
2024-04-14T03:00:35.539Z,3.10
2024-04-14T03:03:02.807Z,3.10
2024-04-14T03:05:29.684Z,2.92
2024-04-14T03:07:59.462Z,3.10
2024-04-14T03:10:26.610Z,2.94
2024-04-14T03:12:53.843Z,2.77
2024-04-14T03:15:21.019Z,3.05
2024-04-14T03:17:48.195Z,3.04
2024-04-14T03:20:15.688Z,2.99
2024-04-14T03:22:42.779Z,2.95
2024-04-14T03:25:12.496Z,3.14
2024-04-14T03:27:39.872Z,2.87
2024-04-14T03:30:08.573Z,3.00
2024-04-14T03:32:35.867Z,3.22
2024-04-14T03:35:03.221Z,3.18
2024-04-14T03:37:30.346Z,2.94
2024-04-14T03:39:57.543Z,3.07
2024-04-14T03:42:27.363Z,2.91
2024-04-14T03:44:54.466Z,2.89
2024-04-14T03:47:21.577Z,2.93
2024-04-14T03:49:48.683Z,3.07
2024-04-14T03:52:15.742Z,3.06
2024-04-14T03:54:42.811Z,2.96
2024-04-14T03:57:09.870Z,2.72
2024-04-14T03:59:39.516Z,2.88
2024-04-14T04:02:06.705Z,2.72
2024-04-14T04:04:33.935Z,2.91
2024-04-14T04:07:01.011Z,2.66
2024-04-14T04:09:28.163Z,2.65
2024-04-14T04:11:55.226Z,2.85
2024-04-14T04:14:22.285Z,2.85
2024-04-14T04:16:53.147Z,2.69
2024-04-14T04:19:26.135Z,2.73
2024-04-14T04:21:55.078Z,2.77
2024-04-14T04:24:25.200Z,2.89
2024-04-14T04:26:52.882Z,2.93
2024-04-14T04:29:20.028Z,2.87
2024-04-14T04:31:47.062Z,2.49
2024-04-14T04:34:16.842Z,2.60
2024-04-14T04:36:45.502Z,2.60
2024-04-14T04:39:12.640Z,2.65
2024-04-14T04:41:39.688Z,3.16
2024-04-14T04:44:06.729Z,3.12
2024-04-14T04:46:33.821Z,2.99
2024-04-14T04:49:00.941Z,2.94
2024-04-14T04:51:31.557Z,3.08
2024-04-14T04:53:58.642Z,2.92
2024-04-14T04:56:25.741Z,2.79
2024-04-14T04:58:52.889Z,2.82
2024-04-14T05:01:20.078Z,2.82
2024-04-14T05:03:47.295Z,2.99
2024-04-14T05:06:14.455Z,2.69
2024-04-14T05:08:44.157Z,2.79
2024-04-14T05:11:11.255Z,2.97
2024-04-14T05:13:38.356Z,2.89
2024-04-14T05:16:06.307Z,2.92
2024-04-14T05:18:33.639Z,2.93
2024-04-14T05:21:01.016Z,2.74
2024-04-14T05:23:28.107Z,2.79
2024-04-14T05:26:00.823Z,2.85
2024-04-14T05:28:27.991Z,2.51
2024-04-14T05:30:55.218Z,2.84
2024-04-14T05:33:22.361Z,3.02
2024-04-14T05:35:53.861Z,3.00
2024-04-14T05:38:21.013Z,2.87
2024-04-14T05:40:48.218Z,2.98
2024-04-14T05:43:18.059Z,2.98
2024-04-14T05:45:45.847Z,3.12
2024-04-14T05:48:13.309Z,2.77
2024-04-14T05:50:40.483Z,2.74
2024-04-14T05:53:07.535Z,2.96
2024-04-14T05:55:34.750Z,2.91
2024-04-14T05:58:02.131Z,3.34
2024-04-14T06:00:32.089Z,3.48
2024-04-14T06:02:59.175Z,2.99
2024-04-14T06:05:26.319Z,3.24
2024-04-14T06:07:53.525Z,3.07
2024-04-14T06:10:20.716Z,2.83
2024-04-14T06:12:47.813Z,2.73
2024-04-14T06:15:14.963Z,2.89
2024-04-14T06:17:44.956Z,3.26
2024-04-14T06:20:12.023Z,2.84
2024-04-14T06:22:39.055Z,2.97
2024-04-14T06:25:06.287Z,2.58
2024-04-14T06:27:33.431Z,2.92
2024-04-14T06:30:00.562Z,2.84
2024-04-14T06:32:28.057Z,2.85
2024-04-14T06:34:57.912Z,2.96
2024-04-14T06:37:25.026Z,3.15
2024-04-14T06:39:52.181Z,3.03
2024-04-14T06:42:19.286Z,3.03
2024-04-14T06:44:46.559Z,2.81
2024-04-14T06:47:13.645Z,2.72
2024-04-14T06:49:40.713Z,2.84
2024-04-14T06:52:10.405Z,2.89
2024-04-14T06:54:37.612Z,2.90
2024-04-14T06:57:05.395Z,2.90
2024-04-14T06:59:32.450Z,2.65
2024-04-14T07:01:59.603Z,2.72
2024-04-14T07:04:27.108Z,2.95
2024-04-14T07:06:54.310Z,2.96
2024-04-14T07:09:24.101Z,2.88
2024-04-14T07:11:51.312Z,2.67
2024-04-14T07:14:18.418Z,2.72
2024-04-14T07:16:45.475Z,2.51
2024-04-14T07:19:12.747Z,2.71
2024-04-14T07:21:40.063Z,2.76
2024-04-14T07:24:07.499Z,2.54
2024-04-14T07:26:37.230Z,2.32
2024-04-14T07:29:04.285Z,2.41
2024-04-14T07:31:31.480Z,2.64
2024-04-14T07:34:00.203Z,2.80
2024-04-14T07:36:27.554Z,2.75
2024-04-14T07:38:54.781Z,2.53
2024-04-14T07:41:22.057Z,2.73
2024-04-14T07:43:51.840Z,2.62
2024-04-14T07:46:19.524Z,2.71
2024-04-14T07:48:46.603Z,2.75
2024-04-14T07:51:13.691Z,2.47
2024-04-14T07:53:41.670Z,2.58
2024-04-14T07:56:08.711Z,2.59
2024-04-14T07:58:35.735Z,2.83
2024-04-14T08:01:05.552Z,2.62
2024-04-14T08:03:42.647Z,2.57
2024-04-14T08:06:17.736Z,2.74
2024-04-14T08:08:44.774Z,2.72
2024-04-14T08:11:11.881Z,2.89
2024-04-14T08:13:38.938Z,2.61
2024-04-14T08:16:09.060Z,2.53
2024-04-14T08:18:36.395Z,2.53
2024-04-14T08:21:03.921Z,2.63
2024-04-14T08:23:31.188Z,2.71
2024-04-14T08:26:01.375Z,2.65
2024-04-14T08:28:28.431Z,2.52
2024-04-14T08:30:55.654Z,2.43
2024-04-14T08:33:25.582Z,2.60
2024-04-14T08:35:52.910Z,2.55
2024-04-14T08:38:19.956Z,2.60
2024-04-14T08:40:53.178Z,2.68
2024-04-14T08:43:21.201Z,2.50
2024-04-14T08:45:48.649Z,2.64
2024-04-14T08:48:18.927Z,2.62
2024-04-14T08:50:48.789Z,2.86
2024-04-14T08:53:19.387Z,2.84
2024-04-14T08:55:49.158Z,2.85
2024-04-14T08:58:17.196Z,3.08
2024-04-14T09:00:45.256Z,2.90
2024-04-14T09:03:12.631Z,2.84
2024-04-14T09:05:41.984Z,2.69
2024-04-14T09:08:11.744Z,2.81
2024-04-14T09:10:38.997Z,2.55
2024-04-14T09:13:08.961Z,2.62
2024-04-14T09:15:40.185Z,2.51
2024-04-14T09:18:07.562Z,2.91
2024-04-14T09:20:34.300Z,3.10
2024-04-14T09:23:01.051Z,3.11
2024-04-14T09:25:30.557Z,3.27
2024-04-14T09:28:02.424Z,3.04
2024-04-14T09:30:29.704Z,3.51
2024-04-14T09:32:58.782Z,3.21
2024-04-14T09:35:26.605Z,3.20
2024-04-14T09:37:53.834Z,3.20
2024-04-14T09:40:20.866Z,3.20
2024-04-14T09:42:52.470Z,8.92
2024-04-14T09:45:19.655Z,6.13
2024-04-14T09:47:48.116Z,2.73
2024-04-14T09:50:14.885Z,2.44
2024-04-14T09:52:45.033Z,2.47
2024-04-14T09:55:11.870Z,2.44
2024-04-14T09:57:38.737Z,2.59
2024-04-14T10:00:10.075Z,2.44
2024-04-14T10:02:41.721Z,2.53
2024-04-14T10:05:09.904Z,2.42
2024-04-14T10:07:37.387Z,2.53
2024-04-14T10:10:07.777Z,2.76
2024-04-14T10:12:35.041Z,2.83
2024-04-14T10:15:07.314Z,2.74
2024-04-14T10:17:38.598Z,2.59
2024-04-14T10:20:14.038Z,2.40
2024-04-14T10:22:42.779Z,2.58
2024-04-14T10:25:18.399Z,2.33
2024-04-14T10:27:45.545Z,2.39
2024-04-14T10:30:20.260Z,2.79
2024-04-14T10:33:01.162Z,3.03
2024-04-14T10:35:27.978Z,2.98
2024-04-14T10:37:55.758Z,3.01
2024-04-14T10:40:23.301Z,2.80
2024-04-14T10:42:50.304Z,2.97
2024-04-14T10:45:25.526Z,2.64
2024-04-14T10:47:55.904Z,2.83
2024-04-14T10:50:22.620Z,2.51
2024-04-14T10:52:49.371Z,2.52
2024-04-14T10:55:16.096Z,2.83
2024-04-14T10:57:42.798Z,2.98
2024-04-14T11:00:10.944Z,2.54
2024-04-14T11:02:38.680Z,2.94
2024-04-14T11:05:09.233Z,2.81
2024-04-14T11:07:36.972Z,2.67
2024-04-14T11:10:09.825Z,2.66
2024-04-14T11:12:37.309Z,2.91
2024-04-14T11:15:06.919Z,2.91
2024-04-14T11:17:35.561Z,2.79
2024-04-14T11:20:02.846Z,2.98
2024-04-14T11:22:33.000Z,4.64
2024-04-14T11:25:00.261Z,4.32
2024-04-14T11:27:29.374Z,3.41
2024-04-14T11:29:57.932Z,2.80
2024-04-14T11:32:25.339Z,4.06
2024-04-14T11:34:52.591Z,5.42
2024-04-14T11:37:19.759Z,4.00
2024-04-14T11:39:49.641Z,4.15
2024-04-14T11:42:16.827Z,3.32
2024-04-14T11:44:44.086Z,3.25
2024-04-14T11:47:11.205Z,3.17
2024-04-14T11:49:38.284Z,3.41
2024-04-14T11:52:08.046Z,3.22
2024-04-14T11:54:38.990Z,4.11
2024-04-14T11:57:08.935Z,3.05
2024-04-14T11:59:36.143Z,3.05
2024-04-14T12:02:04.352Z,3.44
2024-04-14T12:04:31.471Z,3.10
2024-04-14T12:06:58.593Z,2.83
2024-04-14T12:09:25.837Z,2.88
2024-04-14T12:11:53.053Z,3.16
2024-04-14T12:14:23.012Z,2.92
2024-04-14T12:16:50.321Z,3.13
2024-04-14T12:19:17.482Z,3.10
2024-04-14T12:21:44.713Z,3.02
2024-04-14T12:24:11.881Z,3.06
2024-04-14T12:26:39.135Z,2.98
2024-04-14T12:29:06.232Z,2.87
2024-04-14T12:31:36.891Z,3.05
2024-04-14T12:34:04.827Z,3.02
2024-04-14T12:36:32.025Z,3.02
2024-04-14T12:38:58.947Z,2.88
2024-04-14T12:41:25.937Z,2.96
2024-04-14T12:43:53.359Z,3.18
2024-04-14T12:46:20.838Z,3.02
2024-04-14T12:48:50.553Z,2.99
2024-04-14T12:51:17.316Z,3.53
2024-04-14T12:53:44.079Z,3.40
2024-04-14T12:56:10.964Z,2.92
2024-04-14T12:58:37.824Z,2.92
2024-04-14T13:01:05.204Z,2.97
2024-04-14T13:03:32.032Z,3.15
2024-04-14T13:06:02.442Z,2.97
2024-04-14T13:08:29.666Z,3.33
2024-04-14T13:10:56.838Z,3.07
2024-04-14T13:13:23.626Z,2.95
2024-04-14T13:15:50.431Z,3.12
2024-04-14T13:18:17.312Z,3.61
2024-04-14T13:20:44.073Z,3.71
2024-04-14T13:23:13.520Z,3.36
2024-04-14T13:25:40.204Z,3.40
2024-04-14T13:28:07.048Z,5.70
2024-04-14T13:30:33.934Z,15.96
2024-04-14T13:33:01.106Z,13.13
2024-04-14T13:35:28.279Z,3.49
2024-04-14T13:37:55.660Z,3.44
2024-04-14T13:40:25.311Z,3.54
2024-04-14T13:42:52.470Z,3.32
2024-04-14T13:45:19.609Z,3.48
2024-04-14T13:47:46.793Z,3.40
2024-04-14T13:50:14.157Z,3.43
2024-04-14T13:52:41.344Z,3.37
2024-04-14T13:55:08.728Z,3.24
2024-04-14T13:57:38.958Z,3.28
2024-04-14T14:00:07.269Z,3.55
2024-04-14T14:02:34.412Z,3.11
2024-04-14T14:05:01.579Z,3.54
2024-04-14T14:07:30.044Z,3.50
2024-04-14T14:09:56.791Z,3.52
2024-04-14T14:12:23.507Z,3.84
2024-04-14T14:14:52.883Z,3.43
2024-04-14T14:17:19.650Z,3.35
2024-04-14T14:19:46.503Z,3.24
2024-04-14T14:22:13.281Z,3.32
2024-04-14T14:24:41.125Z,3.29
2024-04-14T14:27:07.829Z,3.24
2024-04-14T14:29:34.587Z,3.00
2024-04-14T14:32:04.723Z,3.20
2024-04-14T14:34:31.583Z,2.99
2024-04-14T14:36:58.451Z,3.08
2024-04-14T14:39:25.121Z,2.91
2024-04-14T14:41:51.893Z,3.02
2024-04-14T14:44:18.568Z,3.05
2024-04-14T14:46:45.315Z,3.27
2024-04-14T14:49:14.716Z,3.09
2024-04-14T14:51:42.430Z,3.01
2024-04-14T14:54:12.262Z,3.00
2024-04-14T14:56:39.496Z,2.99
2024-04-14T14:59:06.249Z,2.90
2024-04-14T15:01:33.012Z,2.91
2024-04-14T15:03:59.894Z,2.78
2024-04-14T15:06:29.230Z,2.81
2024-04-14T15:08:56.379Z,2.92
2024-04-14T15:11:23.562Z,2.69
2024-04-14T15:13:51.006Z,2.68
2024-04-14T15:16:18.557Z,2.74
2024-04-14T15:18:45.676Z,2.77
2024-04-14T15:21:12.778Z,2.65
2024-04-14T15:23:42.474Z,2.49
2024-04-14T15:26:09.582Z,2.84
2024-04-14T15:28:36.791Z,2.74
2024-04-14T15:31:04.384Z,2.64
2024-04-14T15:33:31.510Z,2.82
2024-04-14T15:35:58.612Z,3.84
2024-04-14T15:38:25.756Z,8.00
2024-04-14T15:40:56.370Z,4.61
2024-04-14T15:43:23.515Z,2.78
2024-04-14T15:45:50.717Z,2.92
2024-04-14T15:48:17.896Z,2.90
2024-04-14T15:50:45.008Z,2.76
2024-04-14T15:53:12.068Z,3.08
2024-04-14T15:55:39.401Z,2.92
2024-04-14T15:58:09.136Z,3.01
2024-04-14T16:00:36.367Z,3.02
2024-04-14T16:03:04.623Z,2.87
2024-04-14T16:05:31.791Z,3.06
2024-04-14T16:07:58.897Z,2.84
2024-04-14T16:10:29.136Z,2.72
2024-04-14T16:12:56.275Z,2.76
2024-04-14T16:15:26.006Z,2.74
2024-04-14T16:17:53.116Z,3.01
2024-04-14T16:20:20.253Z,3.29
2024-04-14T16:22:47.319Z,2.90
2024-04-14T16:25:16.605Z,3.16
2024-04-14T16:27:45.021Z,2.94
2024-04-14T16:30:12.149Z,3.04
2024-04-14T16:32:41.907Z,3.61
2024-04-14T16:35:09.006Z,3.37
2024-04-14T16:37:36.143Z,3.40
2024-04-14T16:40:03.359Z,3.19
2024-04-14T16:42:30.439Z,3.85
2024-04-14T16:44:57.483Z,3.88
2024-04-14T16:47:24.614Z,3.77
2024-04-14T16:49:54.539Z,3.57
2024-04-14T16:52:21.656Z,3.72
2024-04-14T16:54:48.745Z,3.45
2024-04-14T16:57:15.828Z,3.11
2024-04-14T16:59:42.865Z,3.26
2024-04-14T17:02:09.967Z,3.13
2024-04-14T17:04:37.042Z,3.22
2024-04-14T17:07:07.648Z,3.12
2024-04-14T17:09:34.869Z,3.03
2024-04-14T17:12:01.941Z,3.35
2024-04-14T17:14:29.133Z,3.37
2024-04-14T17:16:56.278Z,2.99
2024-04-14T17:19:23.408Z,2.94
2024-04-14T17:21:50.514Z,3.42
2024-04-14T17:24:20.181Z,3.16
2024-04-14T17:26:47.253Z,2.93
2024-04-14T17:29:14.298Z,3.10
2024-04-14T17:31:41.360Z,3.03
2024-04-14T17:34:08.479Z,3.26
2024-04-14T17:36:35.589Z,3.26
2024-04-14T17:39:02.689Z,3.17
2024-04-14T17:41:32.375Z,3.28
2024-04-14T17:43:59.435Z,3.39
2024-04-14T17:46:26.513Z,3.29
2024-04-14T17:48:53.587Z,3.72
2024-04-14T17:51:20.665Z,3.64
2024-04-14T17:53:47.888Z,3.21
2024-04-14T17:56:14.977Z,3.57
2024-04-14T17:58:46.810Z,3.77
2024-04-14T18:01:14.165Z,4.02
2024-04-14T18:03:41.281Z,3.89
2024-04-14T18:06:08.420Z,4.16
2024-04-14T18:08:35.474Z,3.63
2024-04-14T18:11:02.617Z,3.73
2024-04-14T18:13:29.668Z,3.66
2024-04-14T18:15:59.382Z,3.61
2024-04-14T18:18:26.474Z,3.65
2024-04-14T18:20:53.540Z,3.79
2024-04-14T18:23:20.607Z,4.37
2024-04-14T18:25:47.660Z,5.10
2024-04-14T18:28:14.725Z,4.50
2024-04-14T18:30:41.861Z,4.07
2024-04-14T18:33:11.846Z,3.78
2024-04-14T18:35:38.975Z,3.81
2024-04-14T18:38:06.125Z,4.05
2024-04-14T18:40:33.218Z,4.53
2024-04-14T18:43:00.444Z,3.68
2024-04-14T18:45:27.590Z,4.01
2024-04-14T18:47:54.824Z,4.14
2024-04-14T18:50:24.548Z,3.58
2024-04-14T18:52:51.654Z,3.81
2024-04-14T18:55:18.725Z,3.86
2024-04-14T18:57:48.005Z,3.47
2024-04-14T19:00:15.528Z,3.49
2024-04-14T19:02:42.685Z,3.77
2024-04-14T19:05:09.804Z,3.87
2024-04-14T19:07:39.612Z,3.92
2024-04-14T19:10:07.580Z,3.81
2024-04-14T19:12:34.851Z,3.86
2024-04-14T19:15:02.066Z,3.87
2024-04-14T19:17:29.328Z,3.96
2024-04-14T19:19:56.424Z,3.85
2024-04-14T19:22:23.529Z,4.27
2024-04-14T19:24:53.530Z,4.30
2024-04-14T19:27:20.776Z,3.65
2024-04-14T19:29:47.897Z,3.97
2024-04-14T19:32:14.986Z,4.20
2024-04-14T19:34:41.831Z,4.23
2024-04-14T19:37:08.692Z,4.14
2024-04-14T19:39:35.511Z,4.09
2024-04-14T19:42:05.470Z,4.33
2024-04-14T19:44:32.240Z,4.32
2024-04-14T19:46:58.968Z,4.49
2024-04-14T19:49:25.685Z,4.33
2024-04-14T19:51:52.430Z,4.17
2024-04-14T19:54:19.316Z,4.01
2024-04-14T19:56:46.312Z,3.98
2024-04-14T19:59:15.887Z,4.07
2024-04-14T20:01:42.971Z,4.09
2024-04-14T20:04:09.842Z,4.37
2024-04-14T20:06:36.721Z,4.29
2024-04-14T20:09:03.772Z,3.77
2024-04-14T20:11:30.575Z,3.74
2024-04-14T20:13:57.352Z,4.17
2024-04-14T20:16:26.688Z,3.96
2024-04-14T20:18:53.542Z,3.91
2024-04-14T20:21:20.543Z,3.95
2024-04-14T20:23:47.295Z,4.20
2024-04-14T20:26:14.240Z,4.21
2024-04-14T20:28:41.350Z,3.92
2024-04-14T20:31:11.321Z,3.66
2024-04-14T20:33:42.470Z,3.95
2024-04-14T20:36:10.093Z,3.82
2024-04-14T20:38:37.912Z,3.60
2024-04-14T20:41:05.188Z,3.76
2024-04-14T20:43:32.667Z,3.81
2024-04-14T20:45:59.854Z,4.26
2024-04-14T20:48:27.077Z,4.22
2024-04-14T20:50:56.557Z,4.23
2024-04-14T20:53:23.559Z,3.80
2024-04-14T20:55:50.245Z,3.89
2024-04-14T20:58:17.122Z,3.63
2024-04-14T21:00:44.046Z,3.78
2024-04-14T21:03:11.035Z,3.55
2024-04-14T21:05:38.001Z,3.98
2024-04-14T21:08:07.689Z,3.71
2024-04-14T21:10:34.408Z,3.69
2024-04-14T21:13:01.201Z,4.05
2024-04-14T21:15:31.298Z,3.72
2024-04-14T21:17:58.192Z,3.79
2024-04-14T21:20:25.039Z,3.84
2024-04-14T21:22:51.852Z,3.75
2024-04-14T21:25:21.250Z,3.87
2024-04-14T21:27:48.241Z,3.67
2024-04-14T21:30:15.230Z,3.85
2024-04-14T21:32:42.247Z,3.82
2024-04-14T21:35:09.390Z,3.57
2024-04-14T21:37:36.230Z,3.68
2024-04-14T21:40:03.236Z,3.51
2024-04-14T21:42:33.070Z,3.63
2024-04-14T21:45:01.318Z,3.62
2024-04-14T21:47:28.675Z,3.32
2024-04-14T21:49:55.640Z,3.48
2024-04-14T21:52:22.700Z,3.68
2024-04-14T21:54:51.724Z,3.54
2024-04-14T21:57:18.913Z,3.67
2024-04-14T21:59:48.857Z,3.44
2024-04-14T22:02:16.341Z,3.66
2024-04-14T22:04:43.636Z,3.71
2024-04-14T22:07:10.904Z,3.72
2024-04-14T22:09:38.067Z,3.76
2024-04-14T22:12:05.803Z,3.68
2024-04-14T22:14:32.929Z,3.74
2024-04-14T22:17:02.494Z,3.64
2024-04-14T22:19:29.486Z,3.64
2024-04-14T22:21:56.622Z,3.68
2024-04-14T22:24:23.826Z,3.55
2024-04-14T22:26:50.763Z,3.52
2024-04-14T22:29:17.837Z,3.54
2024-04-14T22:31:44.833Z,3.43
2024-04-14T22:34:14.367Z,3.50
2024-04-14T22:36:41.390Z,3.56
2024-04-14T22:39:08.726Z,3.43
2024-04-14T22:41:36.289Z,3.43
2024-04-14T22:44:03.314Z,3.54
2024-04-14T22:46:30.745Z,3.30
2024-04-14T22:48:58.148Z,3.48
2024-04-14T22:51:28.147Z,3.27
2024-04-14T22:53:55.493Z,3.32
2024-04-14T22:56:22.920Z,3.16
2024-04-14T22:58:50.152Z,3.26
2024-04-14T23:01:20.275Z,3.54
2024-04-14T23:03:49.244Z,3.41
2024-04-14T23:06:16.552Z,3.47
2024-04-14T23:08:46.364Z,3.44
2024-04-14T23:11:13.519Z,3.12
2024-04-14T23:13:40.284Z,3.38
2024-04-14T23:16:07.190Z,3.26
2024-04-14T23:18:34.087Z,3.42
2024-04-14T23:21:01.195Z,3.20
2024-04-14T23:23:28.155Z,3.51
2024-04-14T23:25:57.958Z,3.43
2024-04-14T23:28:24.665Z,3.30
2024-04-14T23:30:51.539Z,3.30
2024-04-14T23:33:18.494Z,3.38
2024-04-14T23:35:45.385Z,3.36
2024-04-14T23:38:12.216Z,3.53
2024-04-14T23:40:38.903Z,3.58
2024-04-14T23:43:08.248Z,3.53
2024-04-14T23:45:35.004Z,3.51
2024-04-14T23:48:01.921Z,3.34
2024-04-14T23:50:28.827Z,3.33
2024-04-14T23:52:55.579Z,3.51
2024-04-14T23:55:22.611Z,3.65
2024-04-14T23:57:49.413Z,3.48
